sensor_id;sensor_type;location;lat;lon;timestamp;temperature;humidity
4637;DHT22;2331;48.806;9.140;2023-05-07T00:02:15;17.70;1.00
4637;DHT22;2331;48.806;9.140;2023-05-07T00:04:42;17.70;1.00
4637;DHT22;2331;48.806;9.140;2023-05-07T00:07:10;17.60;1.00
4637;DHT22;2331;48.806;9.140;2023-05-07T00:09:37;17.60;1.00
4637;DHT22;2331;48.806;9.140;2023-05-07T00:12:04;17.60;1.00
4637;DHT22;2331;48.806;9.140;2023-05-07T00:14:31;17.60;1.00
4637;DHT22;2331;48.806;9.140;2023-05-07T00:16:58;17.60;1.00
4637;DHT22;2331;48.806;9.140;2023-05-07T00:19:25;17.60;1.00
4637;DHT22;2331;48.806;9.140;2023-05-07T00:21:52;17.50;1.00
4637;DHT22;2331;48.806;9.140;2023-05-07T00:24:21;17.50;1.00
4637;DHT22;2331;48.806;9.140;2023-05-07T00:26:48;17.50;1.00
4637;DHT22;2331;48.806;9.140;2023-05-07T00:29:14;17.50;1.00
4637;DHT22;2331;48.806;9.140;2023-05-07T00:31:41;17.50;1.00
4637;DHT22;2331;48.806;9.140;2023-05-07T00:34:08;17.50;1.00
4637;DHT22;2331;48.806;9.140;2023-05-07T00:36:35;17.50;1.00
4637;DHT22;2331;48.806;9.140;2023-05-07T00:39:01;17.40;1.00
4637;DHT22;2331;48.806;9.140;2023-05-07T00:41:30;17.40;1.00
4637;DHT22;2331;48.806;9.140;2023-05-07T00:43:57;17.50;1.00
4637;DHT22;2331;48.806;9.140;2023-05-07T00:46:24;17.50;1.00
4637;DHT22;2331;48.806;9.140;2023-05-07T00:48:51;17.40;1.00
4637;DHT22;2331;48.806;9.140;2023-05-07T00:51:18;17.40;1.00
4637;DHT22;2331;48.806;9.140;2023-05-07T00:53:46;17.40;1.00
4637;DHT22;2331;48.806;9.140;2023-05-07T00:56:13;17.30;1.00
4637;DHT22;2331;48.806;9.140;2023-05-07T00:58:42;17.30;1.00
4637;DHT22;2331;48.806;9.140;2023-05-07T01:01:09;17.20;1.00
4637;DHT22;2331;48.806;9.140;2023-05-07T01:03:36;17.20;1.00
4637;DHT22;2331;48.806;9.140;2023-05-07T01:06:03;17.20;1.00
4637;DHT22;2331;48.806;9.140;2023-05-07T01:08:32;17.20;1.00
4637;DHT22;2331;48.806;9.140;2023-05-07T01:11:00;17.20;1.00
4637;DHT22;2331;48.806;9.140;2023-05-07T01:13:28;17.20;1.00
4637;DHT22;2331;48.806;9.140;2023-05-07T01:15:56;17.20;1.00
4637;DHT22;2331;48.806;9.140;2023-05-07T01:18:23;17.20;1.00
4637;DHT22;2331;48.806;9.140;2023-05-07T01:20:52;17.20;1.00
4637;DHT22;2331;48.806;9.140;2023-05-07T01:23:20;17.10;1.00
4637;DHT22;2331;48.806;9.140;2023-05-07T01:25:51;17.10;1.00
4637;DHT22;2331;48.806;9.140;2023-05-07T01:28:18;17.00;1.00
4637;DHT22;2331;48.806;9.140;2023-05-07T01:30:49;17.10;1.00
4637;DHT22;2331;48.806;9.140;2023-05-07T01:33:19;17.10;1.00
4637;DHT22;2331;48.806;9.140;2023-05-07T01:35:50;17.00;1.00
4637;DHT22;2331;48.806;9.140;2023-05-07T01:38:19;16.90;1.00
4637;DHT22;2331;48.806;9.140;2023-05-07T01:40:48;17.00;1.00
4637;DHT22;2331;48.806;9.140;2023-05-07T01:43:15;17.00;1.00
4637;DHT22;2331;48.806;9.140;2023-05-07T01:45:42;17.00;1.00
4637;DHT22;2331;48.806;9.140;2023-05-07T01:48:10;16.90;1.00
4637;DHT22;2331;48.806;9.140;2023-05-07T01:50:38;16.90;1.00
4637;DHT22;2331;48.806;9.140;2023-05-07T01:53:06;16.90;1.00
4637;DHT22;2331;48.806;9.140;2023-05-07T01:55:34;16.80;1.00
4637;DHT22;2331;48.806;9.140;2023-05-07T01:58:02;16.70;1.00
4637;DHT22;2331;48.806;9.140;2023-05-07T02:00:28;16.70;1.00
4637;DHT22;2331;48.806;9.140;2023-05-07T02:02:55;16.70;1.00
4637;DHT22;2331;48.806;9.140;2023-05-07T02:05:23;16.80;1.00
4637;DHT22;2331;48.806;9.140;2023-05-07T02:07:50;16.70;1.00
4637;DHT22;2331;48.806;9.140;2023-05-07T02:10:16;16.80;1.00
4637;DHT22;2331;48.806;9.140;2023-05-07T02:12:45;16.80;1.00
4637;DHT22;2331;48.806;9.140;2023-05-07T02:15:11;16.70;1.00
4637;DHT22;2331;48.806;9.140;2023-05-07T02:17:57;16.60;1.00
4637;DHT22;2331;48.806;9.140;2023-05-07T02:20:25;16.60;1.00
4637;DHT22;2331;48.806;9.140;2023-05-07T02:22:52;16.70;1.00
4637;DHT22;2331;48.806;9.140;2023-05-07T02:25:19;16.70;1.00
4637;DHT22;2331;48.806;9.140;2023-05-07T02:27:47;16.70;1.00
4637;DHT22;2331;48.806;9.140;2023-05-07T02:30:14;16.70;1.00
4637;DHT22;2331;48.806;9.140;2023-05-07T02:32:41;16.70;1.00
4637;DHT22;2331;48.806;9.140;2023-05-07T02:35:08;16.70;1.00
4637;DHT22;2331;48.806;9.140;2023-05-07T02:37:35;16.60;1.00
4637;DHT22;2331;48.806;9.140;2023-05-07T02:40:01;16.60;1.00
4637;DHT22;2331;48.806;9.140;2023-05-07T02:42:29;16.60;1.00
4637;DHT22;2331;48.806;9.140;2023-05-07T02:44:57;16.50;1.00
4637;DHT22;2331;48.806;9.140;2023-05-07T02:47:24;16.50;1.00
4637;DHT22;2331;48.806;9.140;2023-05-07T02:49:52;16.60;1.00
4637;DHT22;2331;48.806;9.140;2023-05-07T02:52:19;16.50;1.00
4637;DHT22;2331;48.806;9.140;2023-05-07T02:54:45;16.50;1.00
4637;DHT22;2331;48.806;9.140;2023-05-07T02:57:12;16.50;1.00
4637;DHT22;2331;48.806;9.140;2023-05-07T02:59:39;16.50;1.00
4637;DHT22;2331;48.806;9.140;2023-05-07T03:02:07;16.50;1.00
4637;DHT22;2331;48.806;9.140;2023-05-07T03:04:34;16.50;1.00
4637;DHT22;2331;48.806;9.140;2023-05-07T03:07:01;16.50;1.00
4637;DHT22;2331;48.806;9.140;2023-05-07T03:09:27;16.40;1.00
4637;DHT22;2331;48.806;9.140;2023-05-07T03:11:54;16.30;1.00
4637;DHT22;2331;48.806;9.140;2023-05-07T03:14:21;16.30;1.00
4637;DHT22;2331;48.806;9.140;2023-05-07T03:16:49;16.20;1.00
4637;DHT22;2331;48.806;9.140;2023-05-07T03:19:17;16.30;1.00
4637;DHT22;2331;48.806;9.140;2023-05-07T03:21:44;16.20;1.00
4637;DHT22;2331;48.806;9.140;2023-05-07T03:24:10;16.20;1.00
4637;DHT22;2331;48.806;9.140;2023-05-07T03:26:37;16.20;1.00
4637;DHT22;2331;48.806;9.140;2023-05-07T03:29:04;16.10;1.00
4637;DHT22;2331;48.806;9.140;2023-05-07T03:31:31;16.10;1.00
4637;DHT22;2331;48.806;9.140;2023-05-07T03:33:57;16.10;1.00
4637;DHT22;2331;48.806;9.140;2023-05-07T03:36:26;16.10;1.00
4637;DHT22;2331;48.806;9.140;2023-05-07T03:38:53;16.00;1.00
4637;DHT22;2331;48.806;9.140;2023-05-07T03:41:20;16.00;1.00
4637;DHT22;2331;48.806;9.140;2023-05-07T03:43:46;16.00;1.00
4637;DHT22;2331;48.806;9.140;2023-05-07T03:46:13;16.00;1.00
4637;DHT22;2331;48.806;9.140;2023-05-07T03:48:40;16.00;1.00
4637;DHT22;2331;48.806;9.140;2023-05-07T03:51:07;15.90;1.00
4637;DHT22;2331;48.806;9.140;2023-05-07T03:53:35;15.80;1.00
4637;DHT22;2331;48.806;9.140;2023-05-07T03:56:02;15.80;1.00
4637;DHT22;2331;48.806;9.140;2023-05-07T03:58:29;15.70;1.00
4637;DHT22;2331;48.806;9.140;2023-05-07T04:00:56;15.80;1.00
4637;DHT22;2331;48.806;9.140;2023-05-07T04:03:23;15.70;1.00
4637;DHT22;2331;48.806;9.140;2023-05-07T04:05:50;15.70;1.00
4637;DHT22;2331;48.806;9.140;2023-05-07T04:08:17;15.70;1.00
4637;DHT22;2331;48.806;9.140;2023-05-07T04:10:45;15.70;1.00
4637;DHT22;2331;48.806;9.140;2023-05-07T04:13:12;15.70;1.00
4637;DHT22;2331;48.806;9.140;2023-05-07T04:15:39;15.70;1.00
4637;DHT22;2331;48.806;9.140;2023-05-07T04:18:05;15.70;1.00
4637;DHT22;2331;48.806;9.140;2023-05-07T04:20:34;15.70;1.00
4637;DHT22;2331;48.806;9.140;2023-05-07T04:23:01;15.70;1.00
4637;DHT22;2331;48.806;9.140;2023-05-07T04:25:28;15.60;1.00
4637;DHT22;2331;48.806;9.140;2023-05-07T04:27:57;15.60;1.00
4637;DHT22;2331;48.806;9.140;2023-05-07T04:30:24;15.60;1.00
4637;DHT22;2331;48.806;9.140;2023-05-07T04:32:51;15.60;1.00
4637;DHT22;2331;48.806;9.140;2023-05-07T04:35:18;15.60;1.00
4637;DHT22;2331;48.806;9.140;2023-05-07T04:37:45;15.60;1.00
4637;DHT22;2331;48.806;9.140;2023-05-07T04:40:12;15.60;1.00
4637;DHT22;2331;48.806;9.140;2023-05-07T04:42:38;15.60;1.00
4637;DHT22;2331;48.806;9.140;2023-05-07T04:45:07;15.60;1.00
4637;DHT22;2331;48.806;9.140;2023-05-07T04:47:35;15.60;1.00
4637;DHT22;2331;48.806;9.140;2023-05-07T04:50:02;15.60;1.00
4637;DHT22;2331;48.806;9.140;2023-05-07T04:52:29;15.50;1.00
4637;DHT22;2331;48.806;9.140;2023-05-07T04:54:58;15.50;1.00
4637;DHT22;2331;48.806;9.140;2023-05-07T04:57:25;15.60;1.00
4637;DHT22;2331;48.806;9.140;2023-05-07T04:59:52;15.50;1.00
4637;DHT22;2331;48.806;9.140;2023-05-07T05:02:20;15.60;1.00
4637;DHT22;2331;48.806;9.140;2023-05-07T05:04:47;15.60;1.00
4637;DHT22;2331;48.806;9.140;2023-05-07T05:07:14;15.60;1.00
4637;DHT22;2331;48.806;9.140;2023-05-07T05:09:41;15.50;1.00
4637;DHT22;2331;48.806;9.140;2023-05-07T05:12:07;15.60;1.00
4637;DHT22;2331;48.806;9.140;2023-05-07T05:14:34;15.50;1.00
4637;DHT22;2331;48.806;9.140;2023-05-07T05:17:01;15.60;1.00
4637;DHT22;2331;48.806;9.140;2023-05-07T05:19:29;15.60;1.00
4637;DHT22;2331;48.806;9.140;2023-05-07T05:21:56;15.60;1.00
4637;DHT22;2331;48.806;9.140;2023-05-07T05:24:22;15.70;1.00
4637;DHT22;2331;48.806;9.140;2023-05-07T05:26:49;15.60;1.00
4637;DHT22;2331;48.806;9.140;2023-05-07T05:29:16;15.60;1.00
4637;DHT22;2331;48.806;9.140;2023-05-07T05:31:43;15.60;1.00
4637;DHT22;2331;48.806;9.140;2023-05-07T05:34:09;15.60;1.00
4637;DHT22;2331;48.806;9.140;2023-05-07T05:36:38;15.70;1.00
4637;DHT22;2331;48.806;9.140;2023-05-07T05:39:04;15.70;1.00
4637;DHT22;2331;48.806;9.140;2023-05-07T05:41:31;15.70;1.00
4637;DHT22;2331;48.806;9.140;2023-05-07T05:43:58;15.80;1.00
4637;DHT22;2331;48.806;9.140;2023-05-07T05:46:25;15.80;1.00
4637;DHT22;2331;48.806;9.140;2023-05-07T05:48:51;15.80;1.00
4637;DHT22;2331;48.806;9.140;2023-05-07T05:51:18;15.90;1.00
4637;DHT22;2331;48.806;9.140;2023-05-07T05:53:46;15.80;1.00
4637;DHT22;2331;48.806;9.140;2023-05-07T05:56:13;15.90;1.00
4637;DHT22;2331;48.806;9.140;2023-05-07T05:58:40;16.00;1.00
4637;DHT22;2331;48.806;9.140;2023-05-07T06:01:07;16.00;1.00
4637;DHT22;2331;48.806;9.140;2023-05-07T06:03:33;16.10;1.00
4637;DHT22;2331;48.806;9.140;2023-05-07T06:06:00;16.20;1.00
4637;DHT22;2331;48.806;9.140;2023-05-07T06:08:29;16.20;1.00
4637;DHT22;2331;48.806;9.140;2023-05-07T06:10:57;16.30;1.00
4637;DHT22;2331;48.806;9.140;2023-05-07T06:13:25;16.30;1.00
4637;DHT22;2331;48.806;9.140;2023-05-07T06:15:51;16.30;1.00
4637;DHT22;2331;48.806;9.140;2023-05-07T06:18:18;16.40;1.00
4637;DHT22;2331;48.806;9.140;2023-05-07T06:20:45;16.50;1.00
4637;DHT22;2331;48.806;9.140;2023-05-07T06:23:12;16.50;1.00
4637;DHT22;2331;48.806;9.140;2023-05-07T06:25:38;16.50;1.00
4637;DHT22;2331;48.806;9.140;2023-05-07T06:28:06;16.60;1.00
4637;DHT22;2331;48.806;9.140;2023-05-07T06:30:34;16.60;1.00
4637;DHT22;2331;48.806;9.140;2023-05-07T06:33:01;16.60;1.00
4637;DHT22;2331;48.806;9.140;2023-05-07T06:35:27;16.70;1.00
4637;DHT22;2331;48.806;9.140;2023-05-07T06:37:54;16.70;1.00
4637;DHT22;2331;48.806;9.140;2023-05-07T06:40:21;16.70;1.00
4637;DHT22;2331;48.806;9.140;2023-05-07T06:42:47;16.70;1.00
4637;DHT22;2331;48.806;9.140;2023-05-07T06:45:16;16.80;1.00
4637;DHT22;2331;48.806;9.140;2023-05-07T06:47:43;16.90;1.00
4637;DHT22;2331;48.806;9.140;2023-05-07T06:50:10;16.90;1.00
4637;DHT22;2331;48.806;9.140;2023-05-07T06:52:36;16.90;1.00
4637;DHT22;2331;48.806;9.140;2023-05-07T06:55:04;17.00;1.00
4637;DHT22;2331;48.806;9.140;2023-05-07T06:57:31;17.10;1.00
4637;DHT22;2331;48.806;9.140;2023-05-07T06:59:58;17.20;1.00
4637;DHT22;2331;48.806;9.140;2023-05-07T07:02:26;17.20;1.00
4637;DHT22;2331;48.806;9.140;2023-05-07T07:04:53;17.30;1.00
4637;DHT22;2331;48.806;9.140;2023-05-07T07:07:19;17.40;1.00
4637;DHT22;2331;48.806;9.140;2023-05-07T07:09:46;17.40;1.00
4637;DHT22;2331;48.806;9.140;2023-05-07T07:12:13;17.50;1.00
4637;DHT22;2331;48.806;9.140;2023-05-07T07:14:40;17.50;1.00
4637;DHT22;2331;48.806;9.140;2023-05-07T07:17:06;17.70;1.00
4637;DHT22;2331;48.806;9.140;2023-05-07T07:19:35;17.80;1.00
4637;DHT22;2331;48.806;9.140;2023-05-07T07:22:03;17.90;1.00
4637;DHT22;2331;48.806;9.140;2023-05-07T07:24:29;18.10;1.00
4637;DHT22;2331;48.806;9.140;2023-05-07T07:26:56;18.20;1.00
4637;DHT22;2331;48.806;9.140;2023-05-07T07:29:23;18.40;1.00
4637;DHT22;2331;48.806;9.140;2023-05-07T07:31:52;18.40;1.00
4637;DHT22;2331;48.806;9.140;2023-05-07T07:34:18;18.60;1.00
4637;DHT22;2331;48.806;9.140;2023-05-07T07:36:46;18.80;1.00
4637;DHT22;2331;48.806;9.140;2023-05-07T07:39:13;18.90;1.00
4637;DHT22;2331;48.806;9.140;2023-05-07T07:41:40;19.00;1.00
4637;DHT22;2331;48.806;9.140;2023-05-07T07:44:07;19.20;1.00
4637;DHT22;2331;48.806;9.140;2023-05-07T07:46:34;19.30;1.00
4637;DHT22;2331;48.806;9.140;2023-05-07T07:49:01;19.40;1.00
4637;DHT22;2331;48.806;9.140;2023-05-07T07:51:28;19.50;1.00
4637;DHT22;2331;48.806;9.140;2023-05-07T07:53:57;19.60;1.00
4637;DHT22;2331;48.806;9.140;2023-05-07T07:56:24;19.80;1.00
4637;DHT22;2331;48.806;9.140;2023-05-07T07:58:50;19.90;1.00
4637;DHT22;2331;48.806;9.140;2023-05-07T08:01:17;20.10;1.00
4637;DHT22;2331;48.806;9.140;2023-05-07T08:03:44;20.10;1.00
4637;DHT22;2331;48.806;9.140;2023-05-07T08:06:11;20.20;1.00
4637;DHT22;2331;48.806;9.140;2023-05-07T08:08:38;20.40;1.00
4637;DHT22;2331;48.806;9.140;2023-05-07T08:11:06;20.40;1.00
4637;DHT22;2331;48.806;9.140;2023-05-07T08:13:32;20.60;1.00
4637;DHT22;2331;48.806;9.140;2023-05-07T08:15:59;20.70;1.00
4637;DHT22;2331;48.806;9.140;2023-05-07T08:18:26;20.70;1.00
4637;DHT22;2331;48.806;9.140;2023-05-07T08:20:54;20.80;1.00
4637;DHT22;2331;48.806;9.140;2023-05-07T08:23:21;21.00;1.00
4637;DHT22;2331;48.806;9.140;2023-05-07T08:25:48;21.10;1.00
4637;DHT22;2331;48.806;9.140;2023-05-07T08:28:16;21.20;1.00
4637;DHT22;2331;48.806;9.140;2023-05-07T08:30:43;21.30;1.00
4637;DHT22;2331;48.806;9.140;2023-05-07T08:33:10;21.30;1.00
4637;DHT22;2331;48.806;9.140;2023-05-07T08:35:37;21.40;1.00
4637;DHT22;2331;48.806;9.140;2023-05-07T08:38:04;21.40;1.00
4637;DHT22;2331;48.806;9.140;2023-05-07T08:40:36;21.40;1.00
4637;DHT22;2331;48.806;9.140;2023-05-07T08:43:05;21.60;1.00
4637;DHT22;2331;48.806;9.140;2023-05-07T08:45:34;21.60;1.00
4637;DHT22;2331;48.806;9.140;2023-05-07T08:48:02;21.70;1.00
4637;DHT22;2331;48.806;9.140;2023-05-07T08:50:29;21.90;1.00
4637;DHT22;2331;48.806;9.140;2023-05-07T08:52:56;22.00;1.00
4637;DHT22;2331;48.806;9.140;2023-05-07T08:55:24;22.10;1.00
4637;DHT22;2331;48.806;9.140;2023-05-07T08:57:51;22.20;1.00
4637;DHT22;2331;48.806;9.140;2023-05-07T09:00:18;22.30;1.00
4637;DHT22;2331;48.806;9.140;2023-05-07T09:02:46;22.40;1.00
4637;DHT22;2331;48.806;9.140;2023-05-07T09:05:13;22.50;1.00
4637;DHT22;2331;48.806;9.140;2023-05-07T09:07:40;22.60;1.00
4637;DHT22;2331;48.806;9.140;2023-05-07T09:10:08;22.70;1.00
4637;DHT22;2331;48.806;9.140;2023-05-07T09:12:35;22.80;1.00
4637;DHT22;2331;48.806;9.140;2023-05-07T09:15:02;23.00;1.00
4637;DHT22;2331;48.806;9.140;2023-05-07T09:17:29;23.10;1.00
4637;DHT22;2331;48.806;9.140;2023-05-07T09:20:02;23.10;1.00
4637;DHT22;2331;48.806;9.140;2023-05-07T09:22:31;23.20;1.00
4637;DHT22;2331;48.806;9.140;2023-05-07T09:24:58;23.30;1.00
4637;DHT22;2331;48.806;9.140;2023-05-07T09:27:25;23.40;1.00
4637;DHT22;2331;48.806;9.140;2023-05-07T09:29:52;23.50;1.00
4637;DHT22;2331;48.806;9.140;2023-05-07T09:32:19;23.70;1.00
4637;DHT22;2331;48.806;9.140;2023-05-07T09:34:45;23.80;1.00
4637;DHT22;2331;48.806;9.140;2023-05-07T09:37:15;23.90;1.00
4637;DHT22;2331;48.806;9.140;2023-05-07T09:39:44;23.90;1.00
4637;DHT22;2331;48.806;9.140;2023-05-07T09:42:12;24.00;1.00
4637;DHT22;2331;48.806;9.140;2023-05-07T09:44:41;24.00;1.00
4637;DHT22;2331;48.806;9.140;2023-05-07T09:47:08;24.10;1.00
4637;DHT22;2331;48.806;9.140;2023-05-07T09:49:37;24.30;1.00
4637;DHT22;2331;48.806;9.140;2023-05-07T09:52:05;24.40;1.00
4637;DHT22;2331;48.806;9.140;2023-05-07T09:54:39;24.40;1.00
4637;DHT22;2331;48.806;9.140;2023-05-07T09:57:09;24.50;1.00
4637;DHT22;2331;48.806;9.140;2023-05-07T09:59:38;24.60;1.00
4637;DHT22;2331;48.806;9.140;2023-05-07T10:02:05;24.60;1.00
4637;DHT22;2331;48.806;9.140;2023-05-07T10:04:32;24.80;1.00
4637;DHT22;2331;48.806;9.140;2023-05-07T10:07:13;24.90;1.00
4637;DHT22;2331;48.806;9.140;2023-05-07T10:09:42;25.00;1.00
4637;DHT22;2331;48.806;9.140;2023-05-07T10:12:10;25.00;1.00
4637;DHT22;2331;48.806;9.140;2023-05-07T10:14:37;25.10;1.00
4637;DHT22;2331;48.806;9.140;2023-05-07T10:17:04;25.20;1.00
4637;DHT22;2331;48.806;9.140;2023-05-07T10:19:32;25.20;1.00
4637;DHT22;2331;48.806;9.140;2023-05-07T10:22:05;25.20;1.00
4637;DHT22;2331;48.806;9.140;2023-05-07T10:24:33;25.30;1.00
4637;DHT22;2331;48.806;9.140;2023-05-07T10:27:04;25.40;1.00
4637;DHT22;2331;48.806;9.140;2023-05-07T10:29:37;25.50;1.00
4637;DHT22;2331;48.806;9.140;2023-05-07T10:32:19;25.50;1.00
4637;DHT22;2331;48.806;9.140;2023-05-07T10:34:54;25.60;1.00
4637;DHT22;2331;48.806;9.140;2023-05-07T10:37:21;25.60;1.00
4637;DHT22;2331;48.806;9.140;2023-05-07T10:39:49;25.70;1.00
4637;DHT22;2331;48.806;9.140;2023-05-07T10:42:17;25.80;1.00
4637;DHT22;2331;48.806;9.140;2023-05-07T10:44:44;25.90;1.00
4637;DHT22;2331;48.806;9.140;2023-05-07T10:47:12;25.90;1.00
4637;DHT22;2331;48.806;9.140;2023-05-07T10:52:39;25.80;1.00
4637;DHT22;2331;48.806;9.140;2023-05-07T10:55:20;25.80;1.00
4637;DHT22;2331;48.806;9.140;2023-05-07T10:57:49;25.70;1.00
4637;DHT22;2331;48.806;9.140;2023-05-07T11:00:42;25.90;1.00
4637;DHT22;2331;48.806;9.140;2023-05-07T11:03:09;25.80;1.00
4637;DHT22;2331;48.806;9.140;2023-05-07T11:05:37;25.90;1.00
4637;DHT22;2331;48.806;9.140;2023-05-07T11:08:05;25.90;1.00
4637;DHT22;2331;48.806;9.140;2023-05-07T11:10:48;25.90;1.00
4637;DHT22;2331;48.806;9.140;2023-05-07T11:13:17;25.80;1.00
4637;DHT22;2331;48.806;9.140;2023-05-07T11:15:46;25.90;1.00
4637;DHT22;2331;48.806;9.140;2023-05-07T11:18:14;25.90;1.00
4637;DHT22;2331;48.806;9.140;2023-05-07T11:20:46;26.00;1.00
4637;DHT22;2331;48.806;9.140;2023-05-07T11:26:13;26.10;1.00
4637;DHT22;2331;48.806;9.140;2023-05-07T11:28:42;25.90;1.00
4637;DHT22;2331;48.806;9.140;2023-05-07T11:31:10;26.00;1.00
4637;DHT22;2331;48.806;9.140;2023-05-07T11:33:37;26.00;1.00
4637;DHT22;2331;48.806;9.140;2023-05-07T11:36:05;26.00;1.00
4637;DHT22;2331;48.806;9.140;2023-05-07T11:38:35;26.00;1.00
4637;DHT22;2331;48.806;9.140;2023-05-07T11:41:02;25.90;1.00
4637;DHT22;2331;48.806;9.140;2023-05-07T11:43:31;25.80;1.00
4637;DHT22;2331;48.806;9.140;2023-05-07T11:46:08;25.80;1.00
4637;DHT22;2331;48.806;9.140;2023-05-07T11:48:35;25.70;1.00
4637;DHT22;2331;48.806;9.140;2023-05-07T11:51:03;25.70;1.00
4637;DHT22;2331;48.806;9.140;2023-05-07T11:53:37;25.60;1.00
4637;DHT22;2331;48.806;9.140;2023-05-07T11:56:07;25.50;1.00
4637;DHT22;2331;48.806;9.140;2023-05-07T11:58:34;25.30;1.00
4637;DHT22;2331;48.806;9.140;2023-05-07T12:01:01;25.40;1.00
4637;DHT22;2331;48.806;9.140;2023-05-07T12:03:30;25.40;1.00
4637;DHT22;2331;48.806;9.140;2023-05-07T12:05:56;25.30;1.00
4637;DHT22;2331;48.806;9.140;2023-05-07T12:08:23;25.30;1.00
4637;DHT22;2331;48.806;9.140;2023-05-07T12:10:50;25.30;1.00
4637;DHT22;2331;48.806;9.140;2023-05-07T12:13:18;25.20;1.00
4637;DHT22;2331;48.806;9.140;2023-05-07T12:15:46;25.10;1.00
4637;DHT22;2331;48.806;9.140;2023-05-07T12:18:13;25.00;1.00
4637;DHT22;2331;48.806;9.140;2023-05-07T12:20:42;24.90;1.00
4637;DHT22;2331;48.806;9.140;2023-05-07T12:23:09;24.80;1.00
4637;DHT22;2331;48.806;9.140;2023-05-07T12:25:37;24.60;1.00
4637;DHT22;2331;48.806;9.140;2023-05-07T12:28:05;24.50;1.00
4637;DHT22;2331;48.806;9.140;2023-05-07T12:30:32;24.30;1.00
4637;DHT22;2331;48.806;9.140;2023-05-07T12:33:03;24.10;1.00
4637;DHT22;2331;48.806;9.140;2023-05-07T12:35:31;23.80;1.00
4637;DHT22;2331;48.806;9.140;2023-05-07T12:37:59;23.30;1.00
4637;DHT22;2331;48.806;9.140;2023-05-07T12:40:36;23.00;1.00
4637;DHT22;2331;48.806;9.140;2023-05-07T12:43:03;22.60;1.00
4637;DHT22;2331;48.806;9.140;2023-05-07T12:45:30;22.20;1.00
4637;DHT22;2331;48.806;9.140;2023-05-07T12:48:01;21.90;1.00
4637;DHT22;2331;48.806;9.140;2023-05-07T12:50:31;21.80;1.00
4637;DHT22;2331;48.806;9.140;2023-05-07T12:53:00;21.70;1.00
4637;DHT22;2331;48.806;9.140;2023-05-07T12:55:29;21.50;1.00
4637;DHT22;2331;48.806;9.140;2023-05-07T12:57:55;21.20;1.00
4637;DHT22;2331;48.806;9.140;2023-05-07T13:00:36;21.00;1.00
4637;DHT22;2331;48.806;9.140;2023-05-07T13:03:03;20.80;1.00
4637;DHT22;2331;48.806;9.140;2023-05-07T13:05:30;20.60;1.00
4637;DHT22;2331;48.806;9.140;2023-05-07T13:07:58;20.60;1.00
4637;DHT22;2331;48.806;9.140;2023-05-07T13:10:26;20.60;1.00
4637;DHT22;2331;48.806;9.140;2023-05-07T13:12:53;20.60;1.00
4637;DHT22;2331;48.806;9.140;2023-05-07T13:15:20;20.60;1.00
4637;DHT22;2331;48.806;9.140;2023-05-07T13:17:47;20.60;1.00
4637;DHT22;2331;48.806;9.140;2023-05-07T13:20:14;20.60;1.00
4637;DHT22;2331;48.806;9.140;2023-05-07T13:22:41;20.50;1.00
4637;DHT22;2331;48.806;9.140;2023-05-07T13:25:13;20.20;1.00
4637;DHT22;2331;48.806;9.140;2023-05-07T13:27:40;20.00;1.00
4637;DHT22;2331;48.806;9.140;2023-05-07T13:30:08;19.70;1.00
4637;DHT22;2331;48.806;9.140;2023-05-07T13:32:34;19.50;1.00
4637;DHT22;2331;48.806;9.140;2023-05-07T13:35:01;19.40;1.00
4637;DHT22;2331;48.806;9.140;2023-05-07T13:37:28;19.40;1.00
4637;DHT22;2331;48.806;9.140;2023-05-07T13:39:55;19.50;1.00
4637;DHT22;2331;48.806;9.140;2023-05-07T13:42:23;19.40;1.00
4637;DHT22;2331;48.806;9.140;2023-05-07T13:44:50;19.50;1.00
4637;DHT22;2331;48.806;9.140;2023-05-07T13:47:17;19.60;1.00
4637;DHT22;2331;48.806;9.140;2023-05-07T13:49:43;19.60;1.00
4637;DHT22;2331;48.806;9.140;2023-05-07T13:52:10;19.60;1.00
4637;DHT22;2331;48.806;9.140;2023-05-07T13:54:37;19.50;1.00
4637;DHT22;2331;48.806;9.140;2023-05-07T13:57:04;19.70;1.00
4637;DHT22;2331;48.806;9.140;2023-05-07T13:59:32;19.70;1.00
4637;DHT22;2331;48.806;9.140;2023-05-07T14:01:59;19.60;1.00
4637;DHT22;2331;48.806;9.140;2023-05-07T14:04:26;19.70;1.00
4637;DHT22;2331;48.806;9.140;2023-05-07T14:06:52;19.60;1.00
4637;DHT22;2331;48.806;9.140;2023-05-07T14:09:19;19.40;1.00
4637;DHT22;2331;48.806;9.140;2023-05-07T14:11:46;19.30;1.00
4637;DHT22;2331;48.806;9.140;2023-05-07T14:14:16;19.20;1.00
4637;DHT22;2331;48.806;9.140;2023-05-07T14:16:45;19.20;1.00
4637;DHT22;2331;48.806;9.140;2023-05-07T14:19:11;19.30;1.00
4637;DHT22;2331;48.806;9.140;2023-05-07T14:21:38;19.40;1.00
4637;DHT22;2331;48.806;9.140;2023-05-07T14:24:06;19.40;1.00
4637;DHT22;2331;48.806;9.140;2023-05-07T14:26:33;19.40;1.00
4637;DHT22;2331;48.806;9.140;2023-05-07T14:29:00;19.20;1.00
4637;DHT22;2331;48.806;9.140;2023-05-07T14:31:27;19.10;1.00
4637;DHT22;2331;48.806;9.140;2023-05-07T14:33:55;19.10;1.00
4637;DHT22;2331;48.806;9.140;2023-05-07T14:36:23;19.10;1.00
4637;DHT22;2331;48.806;9.140;2023-05-07T14:38:51;19.10;1.00
4637;DHT22;2331;48.806;9.140;2023-05-07T14:41:18;19.00;1.00
4637;DHT22;2331;48.806;9.140;2023-05-07T14:43:46;19.10;1.00
4637;DHT22;2331;48.806;9.140;2023-05-07T14:46:15;19.00;1.00
4637;DHT22;2331;48.806;9.140;2023-05-07T14:48:43;19.00;1.00
4637;DHT22;2331;48.806;9.140;2023-05-07T14:51:11;19.00;1.00
4637;DHT22;2331;48.806;9.140;2023-05-07T14:53:38;19.00;1.00
4637;DHT22;2331;48.806;9.140;2023-05-07T14:56:05;19.00;1.00
4637;DHT22;2331;48.806;9.140;2023-05-07T14:58:32;19.10;1.00
4637;DHT22;2331;48.806;9.140;2023-05-07T15:00:59;19.10;1.00
4637;DHT22;2331;48.806;9.140;2023-05-07T15:03:27;19.20;1.00
4637;DHT22;2331;48.806;9.140;2023-05-07T15:05:53;19.20;1.00
4637;DHT22;2331;48.806;9.140;2023-05-07T15:08:21;19.30;1.00
4637;DHT22;2331;48.806;9.140;2023-05-07T15:10:48;19.20;1.00
4637;DHT22;2331;48.806;9.140;2023-05-07T15:13:15;19.20;1.00
4637;DHT22;2331;48.806;9.140;2023-05-07T15:15:42;19.30;1.00
4637;DHT22;2331;48.806;9.140;2023-05-07T15:18:10;19.20;1.00
4637;DHT22;2331;48.806;9.140;2023-05-07T15:20:37;19.30;1.00
4637;DHT22;2331;48.806;9.140;2023-05-07T15:23:04;19.40;1.00
4637;DHT22;2331;48.806;9.140;2023-05-07T15:25:32;19.40;1.00
4637;DHT22;2331;48.806;9.140;2023-05-07T15:27:59;19.50;1.00
4637;DHT22;2331;48.806;9.140;2023-05-07T15:30:26;19.50;1.00
4637;DHT22;2331;48.806;9.140;2023-05-07T15:32:53;19.40;1.00
4637;DHT22;2331;48.806;9.140;2023-05-07T15:35:19;19.50;1.00
4637;DHT22;2331;48.806;9.140;2023-05-07T15:37:47;19.60;1.00
4637;DHT22;2331;48.806;9.140;2023-05-07T15:40:14;19.60;1.00
4637;DHT22;2331;48.806;9.140;2023-05-07T15:42:44;19.60;1.00
4637;DHT22;2331;48.806;9.140;2023-05-07T15:45:11;19.70;1.00
4637;DHT22;2331;48.806;9.140;2023-05-07T15:47:38;19.70;1.00
4637;DHT22;2331;48.806;9.140;2023-05-07T15:50:05;19.70;1.00
4637;DHT22;2331;48.806;9.140;2023-05-07T15:52:32;19.70;1.00
4637;DHT22;2331;48.806;9.140;2023-05-07T15:54:59;19.80;1.00
4637;DHT22;2331;48.806;9.140;2023-05-07T15:57:27;19.70;1.00
4637;DHT22;2331;48.806;9.140;2023-05-07T15:59:55;19.70;1.00
4637;DHT22;2331;48.806;9.140;2023-05-07T16:02:22;19.70;1.00
4637;DHT22;2331;48.806;9.140;2023-05-07T16:04:49;19.70;1.00
4637;DHT22;2331;48.806;9.140;2023-05-07T16:07:16;19.70;1.00
4637;DHT22;2331;48.806;9.140;2023-05-07T16:09:44;19.70;1.00
4637;DHT22;2331;48.806;9.140;2023-05-07T16:12:10;19.80;1.00
4637;DHT22;2331;48.806;9.140;2023-05-07T16:14:37;19.80;1.00
4637;DHT22;2331;48.806;9.140;2023-05-07T16:17:05;19.70;1.00
4637;DHT22;2331;48.806;9.140;2023-05-07T16:19:32;19.70;1.00
4637;DHT22;2331;48.806;9.140;2023-05-07T16:21:59;19.70;1.00
4637;DHT22;2331;48.806;9.140;2023-05-07T16:24:25;19.60;1.00
4637;DHT22;2331;48.806;9.140;2023-05-07T16:26:52;19.70;1.00